Time;durP1;ratioP1;P1;durP2;ratioP2;P2;SDS_P1;SDS_P2;PMS_P1;PMS_P2;Temp;Humidity;BMP_temperature;BMP_pressure;BME280_temperature;BME280_humidity;BME280_pressure;Samples;Min_cycle;Max_cycle;Signal;HPM_P1;HPM_P2
2022/06/05 00:00:25;;;;;;;;;;;;;;;14.55;100.00;-25476.38;5053832;28;20063;-79
2022/06/05 00:02:56;;;;;;;;;;;;;;;14.57;100.00;-25476.97;5043144;28;20024;-79
2022/06/05 00:05:21;;;;;;;;;;;;;;;14.53;100.00;-25475.81;5049769;28;19927;-77
2022/06/05 00:08:04;;;;;;;;;;;;;;;14.54;100.00;-25476.25;5049279;28;19925;-77
2022/06/05 00:10:42;;;;;;;;;;;;;;;14.55;100.00;-25476.38;5034430;28;19924;-77
2022/06/05 00:13:20;;;;;;;;;;;;;;;14.52;100.00;-25475.66;5050554;28;19927;-79
2022/06/05 00:15:46;;;;;;;;;;;;;;;14.50;100.00;-25474.94;5037669;28;19917;-75
2022/06/05 00:18:12;;;;;;;;;;;;;;;14.50;100.00;-25475.06;5064425;28;19924;-79
2022/06/05 00:20:38;;;;;;;;;;;;;;;14.48;100.00;-25474.34;5043617;28;19925;-78
2022/06/05 00:23:06;;;;;;;;;;;;;;;14.42;100.00;-25472.75;5048169;28;19956;-78
2022/06/05 00:25:42;;;;;;;;;;;;;;;14.42;100.00;-25472.59;5043668;28;19928;-77
2022/06/05 00:28:17;;;;;;;;;;;;;;;14.34;100.00;-25470.56;5034660;28;19925;-77
2022/06/05 00:30:50;;;;;;;;;;;;;;;14.39;100.00;-25471.72;5039441;28;19940;-77
2022/06/05 00:33:16;;;;;;;;;;;;;;;14.36;100.00;-25471.16;5050436;28;20308;-77
2022/06/05 00:36:00;;;;;;;;;;;;;;;14.38;100.00;-25471.44;5051127;28;20396;-80
2022/06/05 00:38:33;;;;;;;;;;;;;;;14.36;100.00;-25471.00;5049031;28;19917;-80
2022/06/05 00:41:19;;;;;;;;;;;;;;;14.37;100.00;-25471.28;5034923;28;19980;-80
2022/06/05 00:43:46;;;;;;;;;;;;;;;14.33;100.00;-25470.13;5044612;28;19921;-80
2022/06/05 00:46:11;;;;;;;;;;;;;;;14.32;100.00;-25469.97;5051476;28;19912;-79
2022/06/05 00:48:36;;;;;;;;;;;;;;;14.33;100.00;-25470.13;5033924;28;20301;-80
2022/06/05 00:51:02;;;;;;;;;;;;;;;14.29;100.00;-25468.97;5049656;28;19916;-80
2022/06/05 00:53:28;;;;;;;;;;;;;;;14.28;100.00;-25468.66;5058994;28;19967;-81
2022/06/05 00:55:53;;;;;;;;;;;;;;;14.25;100.00;-25467.94;5052987;28;19966;-80
2022/06/05 00:58:20;;;;;;;;;;;;;;;14.27;100.00;-25468.38;5069850;28;20172;-79
2022/06/05 01:00:51;;;;;;;;;;;;;;;14.26;100.00;-25468.22;5054165;28;19920;-81
2022/06/05 01:03:18;;;;;;;;;;;;;;;14.26;100.00;-25468.22;5053308;28;20393;-80
2022/06/05 01:05:44;;;;;;;;;;;;;;;14.30;100.00;-25469.41;5065056;28;19920;-79
2022/06/05 01:08:10;;;;;;;;;;;;;;;14.31;100.00;-25469.69;5062969;28;20372;-78
2022/06/05 01:10:45;;;;;;;;;;;;;;;14.30;100.00;-25469.25;5053303;28;19921;-80
2022/06/05 01:13:26;;;;;;;;;;;;;;;14.29;100.00;-25468.97;5041566;28;19928;-80
2022/06/05 01:16:10;;;;;;;;;;;;;;;14.31;100.00;-25469.53;5073609;28;19916;-80
2022/06/05 01:18:39;;;;;;;;;;;;;;;14.31;100.00;-25469.53;5072298;28;19963;-80
2022/06/05 01:21:07;;;;;;;;;;;;;;;14.30;100.00;-25469.41;5053544;28;19944;-79
2022/06/05 01:23:53;;;;;;;;;;;;;;;14.37;100.00;-25471.28;5048242;28;19924;-80
2022/06/05 01:26:39;;;;;;;;;;;;;;;14.45;100.00;-25473.47;5036652;28;19921;-79
2022/06/05 01:29:11;;;;;;;;;;;;;;;14.52;100.00;-25475.66;5052118;28;19940;-76
2022/06/05 01:31:44;;;;;;;;;;;;;;;14.54;100.00;-25476.25;5071285;28;19916;-78
2022/06/05 01:34:19;;;;;;;;;;;;;;;14.46;100.00;-25473.75;5061603;28;19920;-75
2022/06/05 01:36:44;;;;;;;;;;;;;;;14.49;100.00;-25474.63;5051051;28;20430;-76
2022/06/05 01:39:11;;;;;;;;;;;;;;;14.53;100.00;-25475.81;5044973;28;19921;-77
2022/06/05 01:41:40;;;;;;;;;;;;;;;14.54;100.00;-25476.09;5072003;28;19917;-74
2022/06/05 01:44:09;;;;;;;;;;;;;;;14.47;100.00;-25474.06;5034730;28;20011;-79
2022/06/05 01:46:36;;;;;;;;;;;;;;;14.38;100.00;-25471.59;5032095;28;19931;-79
2022/06/05 01:49:01;;;;;;;;;;;;;;;14.34;100.00;-25470.41;5056169;28;20015;-78
2022/06/05 01:51:46;;;;;;;;;;;;;;;14.45;100.00;-25473.47;5070475;28;19974;-76
2022/06/05 01:54:14;;;;;;;;;;;;;;;14.44;100.00;-25473.19;5049337;28;19921;-76
2022/06/05 01:56:43;;;;;;;;;;;;;;;14.28;100.00;-25468.66;5052586;28;19924;-79
2022/06/05 01:59:12;;;;;;;;;;;;;;;14.26;100.00;-25468.09;5049036;28;19962;-79
2022/06/05 02:01:40;;;;;;;;;;;;;;;14.27;100.00;-25468.53;5033035;28;20369;-79
2022/06/05 02:04:08;;;;;;;;;;;;;;;14.22;100.00;-25467.06;5046838;28;19927;-78
2022/06/05 02:06:39;;;;;;;;;;;;;;;14.17;100.00;-25465.59;5032154;28;19917;-79
2022/06/05 02:09:25;;;;;;;;;;;;;;;14.11;100.00;-25464.00;5032453;28;20352;-78
2022/06/05 02:11:50;;;;;;;;;;;;;;;14.02;100.00;-25461.22;5029679;28;19959;-79
2022/06/05 02:14:20;;;;;;;;;;;;;;;13.79;100.00;-25454.97;5051598;28;19967;-78
2022/06/05 02:16:46;;;;;;;;;;;;;;;13.67;100.00;-25451.47;5051728;28;19971;-76
2022/06/05 02:19:14;;;;;;;;;;;;;;;13.53;100.00;-25447.53;5071320;28;19920;-77
2022/06/05 02:21:40;;;;;;;;;;;;;;;13.41;100.00;-25444.03;5060760;28;20027;-79
2022/06/05 02:24:07;;;;;;;;;;;;;;;13.36;100.00;-25442.72;5051581;28;19940;-79
2022/06/05 02:26:32;;;;;;;;;;;;;;;13.29;100.00;-25440.78;5053117;28;19917;-80
2022/06/05 02:29:00;;;;;;;;;;;;;;;13.19;100.00;-25437.72;5069334;28;20008;-78
2022/06/05 02:31:32;;;;;;;;;;;;;;;13.10;100.00;-25435.25;5066297;28;19972;-79
2022/06/05 02:34:18;;;;;;;;;;;;;;;13.02;100.00;-25432.91;5046238;28;19951;-79
2022/06/05 02:37:13;;;;;;;;;;;;;;;13.02;100.00;-25432.91;5061326;28;20273;-80
2022/06/05 02:39:57;;;;;;;;;;;;;;;12.97;100.00;-25431.44;5033487;28;20292;-80
2022/06/05 02:42:22;;;;;;;;;;;;;;;12.93;100.00;-25430.44;5052815;28;19917;-80
2022/06/05 02:45:01;;;;;;;;;;;;;;;12.91;100.00;-25429.84;5050080;28;19924;-79
2022/06/05 02:47:26;;;;;;;;;;;;;;;12.88;100.00;-25429.13;5032371;28;20429;-80
2022/06/05 02:50:12;;;;;;;;;;;;;;;12.86;100.00;-25428.53;5068648;28;19921;-78
2022/06/05 02:52:37;;;;;;;;;;;;;;;12.89;100.00;-25429.25;5033115;28;20484;-78
2022/06/05 02:55:07;;;;;;;;;;;;;;;12.88;100.00;-25429.13;5057247;28;20004;-78
2022/06/05 02:57:32;;;;;;;;;;;;;;;12.81;100.00;-25427.06;5053283;28;19921;-78
2022/06/05 02:59:58;;;;;;;;;;;;;;;12.75;100.00;-25425.31;5032310;28;19917;-78
2022/06/05 03:05:09;;;;;;;;;;;;;;;12.65;100.00;-25422.41;5066734;28;19932;-76
2022/06/05 03:07:35;;;;;;;;;;;;;;;12.62;100.00;-25421.66;5042952;28;19940;-76
2022/06/05 03:10:00;;;;;;;;;;;;;;;12.59;100.00;-25420.78;5032012;28;20365;-76
2022/06/05 03:12:26;;;;;;;;;;;;;;;12.58;100.00;-25420.50;5033616;28;19924;-76
2022/06/05 03:14:56;;;;;;;;;;;;;;;12.55;100.00;-25419.63;5051419;28;20376;-79
2022/06/05 03:17:22;;;;;;;;;;;;;;;12.47;100.00;-25417.28;5049541;28;19920;-76
2022/06/05 03:19:47;;;;;;;;;;;;;;;12.37;100.00;-25414.66;5032658;28;20356;-78
2022/06/05 03:22:12;;;;;;;;;;;;;;;12.42;100.00;-25415.81;5042062;28;19920;-79
2022/06/05 03:24:40;;;;;;;;;;;;;;;12.38;100.00;-25414.94;5051601;28;19928;-79
2022/06/05 03:27:06;;;;;;;;;;;;;;;12.40;100.00;-25415.38;5051601;28;19920;-78
2022/06/05 03:29:31;;;;;;;;;;;;;;;12.33;100.00;-25413.31;5051414;28;19921;-78
2022/06/05 03:31:57;;;;;;;;;;;;;;;12.34;100.00;-25413.63;5045018;28;19976;-80
2022/06/05 03:34:23;;;;;;;;;;;;;;;12.31;100.00;-25412.75;5049161;28;19924;-80
2022/06/05 03:36:48;;;;;;;;;;;;;;;12.34;100.00;-25413.75;5051208;28;19920;-79
2022/06/05 03:39:14;;;;;;;;;;;;;;;12.31;100.00;-25412.88;5044073;28;20280;-79
2022/06/05 03:41:39;;;;;;;;;;;;;;;12.29;100.00;-25412.31;5064827;28;20372;-79
2022/06/05 03:44:05;;;;;;;;;;;;;;;12.33;100.00;-25413.31;5058123;28;20361;-79
2022/06/05 03:46:33;;;;;;;;;;;;;;;12.30;100.00;-25412.59;5064757;28;19924;-79
2022/06/05 03:48:58;;;;;;;;;;;;;;;12.38;100.00;-25414.78;5059938;28;19946;-79
2022/06/05 03:51:24;;;;;;;;;;;;;;;12.38;100.00;-25414.78;5065816;28;19917;-79
2022/06/05 03:53:49;;;;;;;;;;;;;;;12.37;100.00;-25414.50;5043425;28;19959;-78
2022/06/05 03:56:16;;;;;;;;;;;;;;;12.38;100.00;-25414.94;5054802;28;19916;-78
2022/06/05 03:58:42;;;;;;;;;;;;;;;12.41;100.00;-25415.66;5050569;28;19917;-78
2022/06/05 04:01:08;;;;;;;;;;;;;;;12.42;100.00;-25415.97;5061912;28;19931;-78
2022/06/05 04:03:36;;;;;;;;;;;;;;;12.39;100.00;-25415.22;5053663;28;19920;-76
2022/06/05 04:06:04;;;;;;;;;;;;;;;12.39;100.00;-25415.09;5054336;28;19925;-77
2022/06/05 04:08:29;;;;;;;;;;;;;;;12.38;100.00;-25414.78;5061286;28;20007;-75
2022/06/05 04:10:54;;;;;;;;;;;;;;;12.33;100.00;-25413.31;5072835;28;20439;-78
2022/06/05 04:13:22;;;;;;;;;;;;;;;12.34;100.00;-25413.75;5068571;28;19920;-76
2022/06/05 04:15:47;;;;;;;;;;;;;;;12.34;100.00;-25413.63;5054994;28;20007;-79
2022/06/05 04:18:12;;;;;;;;;;;;;;;12.31;100.00;-25412.88;5051315;28;20054;-80
2022/06/05 04:20:39;;;;;;;;;;;;;;;12.34;100.00;-25413.63;5058113;28;20486;-81
2022/06/05 04:23:08;;;;;;;;;;;;;;;12.30;100.00;-25412.44;5053111;28;20337;-77
2022/06/05 04:25:34;;;;;;;;;;;;;;;12.31;100.00;-25412.75;5044722;28;19921;-81
2022/06/05 04:27:59;;;;;;;;;;;;;;;12.27;100.00;-25411.72;5046602;28;19924;-80
2022/06/05 04:30:28;;;;;;;;;;;;;;;12.27;100.00;-25411.72;5050708;28;19932;-79
2022/06/05 04:32:53;;;;;;;;;;;;;;;12.27;100.00;-25411.72;5053231;28;19923;-78
2022/06/05 04:35:18;;;;;;;;;;;;;;;12.27;100.00;-25411.56;5075459;28;20433;-77
2022/06/05 04:37:45;;;;;;;;;;;;;;;12.24;100.00;-25410.69;5073833;28;19951;-77
2022/06/05 04:40:10;;;;;;;;;;;;;;;12.20;100.00;-25409.81;5064199;28;20276;-77
2022/06/05 04:42:36;;;;;;;;;;;;;;;12.14;100.00;-25408.06;5056600;28;20007;-75
2022/06/05 04:45:02;;;;;;;;;;;;;;;12.17;100.00;-25408.78;5057138;28;19916;-77
2022/06/05 04:47:28;;;;;;;;;;;;;;;12.16;100.00;-25408.50;5056836;28;20214;-76
2022/06/05 04:49:53;;;;;;;;;;;;;;;12.17;100.00;-25408.78;5040188;28;19969;-76
2022/06/05 04:52:18;;;;;;;;;;;;;;;12.18;100.00;-25409.22;5053200;28;19917;-77
2022/06/05 04:54:44;;;;;;;;;;;;;;;12.24;100.00;-25410.69;5044569;28;20389;-77
2022/06/05 04:57:09;;;;;;;;;;;;;;;12.24;100.00;-25410.69;5060057;28;20006;-77
2022/06/05 04:59:36;;;;;;;;;;;;;;;12.26;100.00;-25411.44;5076124;28;20295;-76
2022/06/05 05:02:01;;;;;;;;;;;;;;;12.24;100.00;-25410.84;5058035;28;19920;-76
2022/06/05 05:04:27;;;;;;;;;;;;;;;12.31;100.00;-25412.88;5035909;28;19925;-75
2022/06/05 05:06:53;;;;;;;;;;;;;;;12.30;100.00;-25412.44;5035910;28;19986;-76
2022/06/05 05:09:21;;;;;;;;;;;;;;;12.27;100.00;-25411.56;5037298;28;20364;-80
2022/06/05 05:11:46;;;;;;;;;;;;;;;12.25;100.00;-25411.00;5032996;28;19928;-83
2022/06/05 05:14:12;;;;;;;;;;;;;;;12.24;100.00;-25410.84;5043700;28;19917;-79
2022/06/05 05:16:37;;;;;;;;;;;;;;;12.25;100.00;-25411.00;5055919;28;19924;-79
2022/06/05 05:19:02;;;;;;;;;;;;;;;12.25;100.00;-25411.00;5057041;28;19916;-79
2022/06/05 05:21:28;;;;;;;;;;;;;;;12.25;100.00;-25411.00;5055461;28;19920;-77
2022/06/05 05:23:55;;;;;;;;;;;;;;;12.25;100.00;-25411.13;5055644;28;19951;-78
2022/06/05 05:26:28;;;;;;;;;;;;;;;12.27;100.00;-25411.72;5056864;28;19916;-77
2022/06/05 05:28:53;;;;;;;;;;;;;;;12.30;100.00;-25412.59;5068541;28;19916;-78
2022/06/05 05:31:24;;;;;;;;;;;;;;;12.35;100.00;-25414.06;5056135;28;19924;-78
2022/06/05 05:33:49;;;;;;;;;;;;;;;12.36;100.00;-25414.22;5043709;28;20448;-76
2022/06/05 05:36:17;;;;;;;;;;;;;;;12.42;100.00;-25415.97;5040278;28;19920;-77
2022/06/05 05:44:17;;;;;;;;;;;;;;;12.55;100.00;-25419.75;5060414;28;19923;-76
2022/06/05 05:46:43;;;;;;;;;;;;;;;12.55;100.00;-25419.63;5055476;28;19962;-79
2022/06/05 05:49:09;;;;;;;;;;;;;;;12.61;100.00;-25421.38;5055122;28;19956;-77
2022/06/05 05:51:34;;;;;;;;;;;;;;;12.61;100.00;-25421.38;5055593;28;19920;-79
2022/06/05 05:54:03;;;;;;;;;;;;;;;12.64;100.00;-25422.25;5054964;28;19923;-76
2022/06/05 05:56:28;;;;;;;;;;;;;;;12.61;100.00;-25421.22;5055751;28;19917;-77
2022/06/05 05:58:53;;;;;;;;;;;;;;;12.63;100.00;-25421.81;5055035;28;19916;-77
2022/06/05 06:01:18;;;;;;;;;;;;;;;12.62;100.00;-25421.53;5055752;28;19912;-77
2022/06/05 06:03:48;;;;;;;;;;;;;;;12.60;100.00;-25421.09;5054822;28;19924;-77
2022/06/05 06:06:15;;;;;;;;;;;;;;;12.66;100.00;-25422.69;5054867;28;19952;-77
2022/06/05 06:08:41;;;;;;;;;;;;;;;12.63;100.00;-25421.97;5055026;28;19999;-77
2022/06/05 06:11:07;;;;;;;;;;;;;;;12.64;100.00;-25422.09;5054938;28;20459;-76
2022/06/05 06:13:32;;;;;;;;;;;;;;;12.64;100.00;-25422.09;5053192;28;20365;-78
2022/06/05 06:15:58;;;;;;;;;;;;;;;12.68;100.00;-25423.41;5050865;28;19940;-77
2022/06/05 06:18:23;;;;;;;;;;;;;;;12.70;100.00;-25423.84;5051962;28;19912;-77
2022/06/05 06:20:49;;;;;;;;;;;;;;;12.66;100.00;-25422.69;5067207;28;19924;-76
2022/06/05 06:23:16;;;;;;;;;;;;;;;12.67;100.00;-25422.97;5074799;28;20420;-80
2022/06/05 06:25:42;;;;;;;;;;;;;;;12.66;100.00;-25422.84;5062105;28;20008;-77
2022/06/05 06:28:08;;;;;;;;;;;;;;;12.67;100.00;-25422.97;5070579;28;19967;-75
2022/06/05 06:30:34;;;;;;;;;;;;;;;12.65;100.00;-25422.53;5085955;28;20403;-77
2022/06/05 06:33:00;;;;;;;;;;;;;;;12.65;100.00;-25422.53;5054008;28;20011;-76
2022/06/05 06:35:26;;;;;;;;;;;;;;;12.67;100.00;-25422.97;5033936;28;20015;-80
2022/06/05 06:37:51;;;;;;;;;;;;;;;12.69;100.00;-25423.72;5033681;28;20016;-79
2022/06/05 06:40:17;;;;;;;;;;;;;;;12.77;100.00;-25425.75;5034654;28;20325;-78
2022/06/05 06:42:46;;;;;;;;;;;;;;;12.77;100.00;-25425.75;5034960;28;19917;-76
2022/06/05 06:45:12;;;;;;;;;;;;;;;12.76;100.00;-25425.59;5035307;28;19917;-78
2022/06/05 06:47:37;;;;;;;;;;;;;;;12.83;100.00;-25427.66;5035058;28;20007;-79
2022/06/05 06:50:03;;;;;;;;;;;;;;;12.84;100.00;-25427.81;5035043;28;19921;-77
2022/06/05 06:52:28;;;;;;;;;;;;;;;12.87;100.00;-25428.81;5033266;28;19985;-77
2022/06/05 06:54:54;;;;;;;;;;;;;;;12.92;100.00;-25430.13;5033839;28;20344;-77
2022/06/05 06:57:20;;;;;;;;;;;;;;;12.97;100.00;-25431.44;5035024;28;19916;-78
2022/06/05 06:59:45;;;;;;;;;;;;;;;12.99;100.00;-25432.03;5034481;28;19940;-77
2022/06/05 07:02:10;;;;;;;;;;;;;;;13.04;100.00;-25433.50;5033533;28;20020;-76
2022/06/05 07:04:36;;;;;;;;;;;;;;;13.07;100.00;-25434.53;5034365;28;19916;-77
2022/06/05 07:07:01;;;;;;;;;;;;;;;13.12;100.00;-25435.84;5034775;28;19921;-77
2022/06/05 07:09:27;;;;;;;;;;;;;;;13.15;100.00;-25436.56;5034673;28;19924;-77
2022/06/05 07:11:52;;;;;;;;;;;;;;;13.20;100.00;-25438.16;5034562;28;19917;-77
2022/06/05 07:14:22;;;;;;;;;;;;;;;13.22;100.00;-25438.75;5034438;28;19916;-77
2022/06/05 07:16:49;;;;;;;;;;;;;;;13.33;100.00;-25441.69;5050650;28;19921;-76
2022/06/05 07:19:16;;;;;;;;;;;;;;;13.38;100.00;-25443.28;5034597;28;19984;-77
2022/06/05 07:21:41;;;;;;;;;;;;;;;13.49;100.00;-25446.34;5034211;28;19999;-78
2022/06/05 07:24:09;;;;;;;;;;;;;;;13.52;100.00;-25447.09;5034837;28;20435;-78
2022/06/05 07:26:34;;;;;;;;;;;;;;;13.57;100.00;-25448.69;5033191;28;19913;-77
2022/06/05 07:29:00;;;;;;;;;;;;;;;13.67;100.00;-25451.31;5034609;28;19917;-75
2022/06/05 07:31:29;;;;;;;;;;;;;;;13.73;100.00;-25453.06;5034463;28;19917;-76
2022/06/05 07:33:55;;;;;;;;;;;;;;;13.79;100.00;-25454.97;5034340;28;19959;-75
2022/06/05 07:36:24;;;;;;;;;;;;;;;13.90;100.00;-25458.03;5034301;28;20003;-76
2022/06/05 07:38:50;;;;;;;;;;;;;;;13.99;100.00;-25460.50;5034379;28;19921;-77
2022/06/05 07:41:36;;;;;;;;;;;;;;;14.08;100.00;-25462.97;5034101;28;20280;-77
2022/06/05 07:44:01;;;;;;;;;;;;;;;14.24;100.00;-25467.50;5034529;28;19963;-77
2022/06/05 07:46:27;;;;;;;;;;;;;;;14.39;100.00;-25471.88;5034061;28;19917;-76
2022/06/05 07:48:53;;;;;;;;;;;;;;;14.50;100.00;-25475.06;5037599;28;19917;-77
2022/06/05 07:56:48;;;;;;;;;;;;;;;16.17;100.00;-25522.22;5055338;28;19942;-76
2022/06/05 07:59:13;;;;;;;;;;;;;;;16.11;100.00;-25520.63;5037757;28;19912;-76
2022/06/05 08:01:39;;;;;;;;;;;;;;;16.23;100.00;-25523.97;5037309;28;19916;-76
2022/06/05 08:04:05;;;;;;;;;;;;;;;16.57;100.00;-25533.41;5037852;28;20281;-76
2022/06/05 08:06:34;;;;;;;;;;;;;;;16.91;100.00;-25543.13;5037766;28;20319;-77
2022/06/05 08:08:59;;;;;;;;;;;;;;;17.03;100.00;-25546.47;5037421;28;19917;-77
2022/06/05 08:11:24;;;;;;;;;;;;;;;17.18;100.00;-25550.66;5037795;28;19923;-77
2022/06/05 08:13:51;;;;;;;;;;;;;;;17.79;100.00;-25567.75;5037155;28;20357;-77
2022/06/05 08:16:16;;;;;;;;;;;;;;;18.06;100.00;-25575.59;5036920;28;20011;-77
2022/06/05 08:18:41;;;;;;;;;;;;;;;18.50;100.00;-25587.88;5036919;28;20005;-78
2022/06/05 08:21:07;;;;;;;;;;;;;;;18.60;100.00;-25590.63;5037345;28;19947;-78
2022/06/05 08:23:33;;;;;;;;;;;;;;;18.62;100.00;-25591.22;5036839;28;19978;-78
2022/06/05 08:25:59;;;;;;;;;;;;;;;19.01;100.00;-25602.22;5037404;28;19928;-78
2022/06/05 08:28:25;;;;;;;;;;;;;;;19.18;100.00;-25606.97;5036957;28;19916;-78
2022/06/05 08:30:51;;;;;;;;;;;;;;;18.97;100.00;-25601.03;5036662;28;19924;-79
2022/06/05 08:33:17;;;;;;;;;;;;;;;19.24;100.00;-25608.72;5036985;28;19960;-77
2022/06/05 08:35:44;;;;;;;;;;;;;;;19.43;100.00;-25613.91;5036429;28;20103;-78
2022/06/05 08:43:59;;;;;;;;;;;;;;;19.02;100.00;-25602.63;5054237;28;20280;-77
2022/06/05 08:46:24;;;;;;;;;;;;;;;18.90;100.00;-25599.03;5036942;28;19923;-79
2022/06/05 08:48:52;;;;;;;;;;;;;;;19.16;100.00;-25606.53;5053061;28;20007;-76
2022/06/05 08:51:21;;;;;;;;;;;;;;;19.50;100.00;-25616.06;5036227;28;19924;-80
2022/06/05 08:53:53;;;;;;;;;;;;;;;19.51;100.00;-25616.38;5052873;28;19932;-78
2022/06/05 08:56:22;;;;;;;;;;;;;;;19.77;100.00;-25623.44;5036171;28;20431;-76
2022/06/05 08:58:51;;;;;;;;;;;;;;;20.04;100.00;-25631.22;5034721;28;20012;-79
2022/06/05 09:01:21;;;;;;;;;;;;;;;20.02;100.00;-23972.03;5036812;28;19932;-78
2022/06/05 09:04:02;;;;;;;;;;;;;;;20.21;100.00;-22982.22;5036296;28;19917;-79
2022/06/05 09:06:33;;;;;;;;;;;;;;;20.49;100.00;-22656.97;5036723;28;19921;-78
2022/06/05 09:09:05;;;;;;;;;;;;;;;20.70;100.00;-21002.28;5035859;28;19921;-79
2022/06/05 09:11:30;;;;;;;;;;;;;;;21.21;100.00;-22341.75;5035213;28;19917;-77
2022/06/05 09:14:14;;;;;;;;;;;;;;;21.44;100.00;-25670.25;5050657;28;19916;-77
2022/06/05 09:16:48;;;;;;;;;;;;;;;21.48;100.00;-22680.25;5051874;28;19971;-76
2022/06/05 09:19:29;;;;;;;;;;;;;;;22.09;100.00;-12369.94;5035461;28;20389;-77
2022/06/05 09:21:58;;;;;;;;;;;;;;;22.45;100.00;-2683.44;5035467;28;19917;-78
2022/06/05 09:24:32;;;;;;;;;;;;;;;22.51;100.00;26533.91;5034755;28;19958;-78
2022/06/05 09:27:08;;;;;;;;;;;;;;;22.42;100.00;30912.91;5034788;28;19935;-77
2022/06/05 09:29:38;;;;;;;;;;;;;;;21.98;100.00;42366.94;5035602;28;19916;-78
2022/06/05 09:32:13;;;;;;;;;;;;;;;21.76;100.00;33569.91;5035216;28;20370;-77
2022/06/05 09:34:49;;;;;;;;;;;;;;;22.27;100.00;36304.59;5034710;28;20510;-76
2022/06/05 09:37:18;;;;;;;;;;;;;;;22.10;100.00;44745.09;5035230;28;19978;-78
2022/06/05 09:39:55;;;;;;;;;;;;;;;22.02;100.00;39327.66;5051360;28;19916;-73
2022/06/05 09:42:36;;;;;;;;;;;;;;;21.84;100.00;21450.00;5034754;28;20396;-74
2022/06/05 09:45:14;;;;;;;;;;;;;;;21.42;100.00;15385.91;5035103;28;20380;-76
2022/06/05 09:47:44;;;;;;;;;;;;;;;21.31;100.00;41301.13;5051759;28;19955;-77
2022/06/05 09:50:21;;;;;;;;;;;;;;;20.99;100.00;30152.50;5035011;28;20384;-76
2022/06/05 09:52:48;;;;;;;;;;;;;;;21.09;100.00;19736.09;5034023;28;20389;-76
2022/06/05 09:55:17;;;;;;;;;;;;;;;20.88;100.00;3983.78;5034303;28;19916;-76
2022/06/05 10:00:29;;;;;;;;;;;;;;;20.39;100.00;9322.97;5054234;28;19993;-78
2022/06/05 10:03:01;;;;;;;;;;;;;;;20.20;100.00;9986.53;5052916;28;20301;-80
2022/06/05 10:05:28;;;;;;;;;;;;;;;20.42;100.00;-4699.94;5036334;28;20208;-78
2022/06/05 10:07:56;;;;;;;;;;;;;;;20.50;100.00;-9696.28;5035195;28;19921;-77
2022/06/05 10:10:25;;;;;;;;;;;;;;;20.56;100.00;-10362.25;5033607;28;20369;-76
2022/06/05 10:12:57;;;;;;;;;;;;;;;20.55;100.00;-10362.25;5034174;28;19917;-76
2022/06/05 10:15:31;;;;;;;;;;;;;;;20.58;100.00;-7032.09;5034239;28;19956;-77
2022/06/05 10:18:01;;;;;;;;;;;;;;;20.50;100.00;-9363.38;5034744;28;19990;-77
2022/06/05 10:20:36;;;;;;;;;;;;;;;20.59;100.00;-13024.59;5034145;28;19999;-77
2022/06/05 10:23:01;;;;;;;;;;;;;;;;;;5034157;28;20014;-77
2022/06/05 10:25:30;;;;;;;;;;;;;;;20.59;100.00;-17346.63;5051130;28;19952;-76
2022/06/05 10:28:16;;;;;;;;;;;;;;;20.25;100.00;-22651.47;5033975;28;19916;-76
2022/06/05 10:30:50;;;;;;;;;;;;;;;20.04;100.00;-25631.22;5033884;28;19960;-79
2022/06/05 10:33:23;;;;;;;;;;;;;;;19.92;100.00;-25627.75;5034045;28;19917;-78
2022/06/05 10:35:53;;;;;;;;;;;;;;;19.97;100.00;-25629.22;5033636;28;20699;-78
2022/06/05 10:38:37;;;;;;;;;;;;;;;19.94;100.00;-25628.19;5033806;28;19916;-78
2022/06/05 10:41:13;;;;;;;;;;;;;;;19.93;100.00;-25628.06;5050129;28;19913;-79
2022/06/05 10:43:39;;;;;;;;;;;;;;;20.05;100.00;-25631.38;5033933;28;20418;-76
2022/06/05 10:46:06;;;;;;;;;;;;;;;20.16;100.00;-25634.41;5034314;28;19913;-80
2022/06/05 10:49:09;;;;;;;;;;;;;;;19.95;100.00;-25628.63;5034512;28;19939;-78
2022/06/05 10:51:35;;;;;;;;;;;;;;;19.99;100.00;-25629.78;4955239;28;19915;-77
2022/06/05 10:54:21;;;;;;;;;;;;;;;19.78;100.00;-25623.88;5035995;28;19923;-77
2022/06/05 10:57:05;;;;;;;;;;;;;;;19.92;100.00;-25627.75;5051456;28;19984;-77
2022/06/05 10:59:51;;;;;;;;;;;;;;;19.77;100.00;-25623.56;5034326;28;20003;-77
2022/06/05 11:02:16;;;;;;;;;;;;;;;19.75;100.00;-25623.00;5034263;28;19923;-78
2022/06/05 11:05:04;;;;;;;;;;;;;;;19.64;100.00;-25619.97;5051969;28;19917;-78
2022/06/05 11:07:41;;;;;;;;;;;;;;;19.61;100.00;-25619.09;4997890;28;20000;-77
2022/06/05 11:10:18;;;;;;;;;;;;;;;19.78;100.00;-25623.72;5034544;28;19928;-77
2022/06/05 11:15:59;;;;;;;;;;;;;;;19.69;100.00;-25621.25;5052028;28;19924;-77
2022/06/05 11:18:38;;;;;;;;;;;;;;;19.65;100.00;-25620.09;5034411;28;19916;-77
2022/06/05 11:21:04;;;;;;;;;;;;;;;19.65;100.00;-25620.25;5034369;28;19917;-77
2022/06/05 11:23:34;;;;;;;;;;;;;;;19.66;100.00;-25620.41;5037456;28;20012;-77
2022/06/05 11:26:05;;;;;;;;;;;;;;;19.55;100.00;-25617.38;5037943;28;19952;-75
2022/06/05 11:28:30;;;;;;;;;;;;;;;19.30;100.00;-25610.44;5054430;28;19917;-76
2022/06/05 11:31:05;;;;;;;;;;;;;;;19.16;100.00;-25606.53;5054189;28;19920;-77
2022/06/05 11:33:32;;;;;;;;;;;;;;;19.17;100.00;-25606.84;5052940;28;19916;-76
2022/06/05 11:36:13;;;;;;;;;;;;;;;18.94;100.00;-25600.31;5037496;28;19925;-77
2022/06/05 11:38:57;;;;;;;;;;;;;;;18.79;100.00;-25596.00;5037678;28;19969;-74
2022/06/05 11:41:26;;;;;;;;;;;;;;;18.72;100.00;-25593.97;5054686;28;19967;-77
2022/06/05 11:44:08;;;;;;;;;;;;;;;18.70;100.00;-25593.38;5054465;28;19917;-79
2022/06/05 11:46:47;;;;;;;;;;;;;;;18.56;100.00;-25589.63;5038323;28;19942;-75
2022/06/05 11:49:36;;;;;;;;;;;;;;;18.37;100.00;-25584.13;5038334;28;20634;-78
2022/06/05 11:52:18;;;;;;;;;;;;;;;18.40;100.00;-25585.13;5038002;28;19917;-77
2022/06/05 11:54:52;;;;;;;;;;;;;;;18.47;100.00;-25587.03;5037110;28;19963;-79
2022/06/05 11:57:25;;;;;;;;;;;;;;;18.52;100.00;-25588.31;5052864;28;19921;-75
2022/06/05 12:00:12;;;;;;;;;;;;;;;18.40;100.00;-25585.00;5036223;28;19924;-76
2022/06/05 12:02:48;;;;;;;;;;;;;;;18.37;100.00;-25584.28;5035724;28;20304;-74
2022/06/05 12:05:13;;;;;;;;;;;;;;;18.39;100.00;-25584.84;5053029;28;19916;-77
2022/06/05 12:07:40;;;;;;;;;;;;;;;18.34;100.00;-25583.25;5053144;28;19917;-76
2022/06/05 12:10:10;;;;;;;;;;;;;;;18.25;100.00;-25580.81;5036603;28;19964;-75
2022/06/05 12:12:46;;;;;;;;;;;;;;;18.18;100.00;-25578.78;5036565;28;19917;-76
2022/06/05 12:15:28;;;;;;;;;;;;;;;18.21;100.00;-25579.78;5035387;28;20776;-74
2022/06/05 12:18:03;;;;;;;;;;;;;;;18.12;100.00;-25577.19;5036268;28;20369;-75
2022/06/05 12:20:31;;;;;;;;;;;;;;;17.99;100.00;-25573.56;5036751;28;20269;-76
2022/06/05 12:23:01;;;;;;;;;;;;;;;17.99;100.00;-25573.41;5053252;28;19921;-75
2022/06/05 12:25:56;;;;;;;;;;;;;;;17.88;100.00;-25570.53;5036698;28;20004;-75
2022/06/05 12:28:24;;;;;;;;;;;;;;;17.70;100.00;-25565.31;4966893;28;19924;-75
2022/06/05 12:30:55;;;;;;;;;;;;;;;17.60;100.00;-25562.56;5052974;28;19921;-77
2022/06/05 12:33:29;;;;;;;;;;;;;;;17.54;100.00;-25560.81;5036695;28;19971;-77
2022/06/05 12:36:03;;;;;;;;;;;;;;;17.44;100.00;-25557.91;5036564;28;19925;-76
2022/06/05 12:38:35;;;;;;;;;;;;;;;17.34;100.00;-25555.16;5037132;28;19921;-79
2022/06/05 12:41:15;;;;;;;;;;;;;;;17.29;100.00;-25553.72;5037154;28;19952;-78
2022/06/05 12:43:49;;;;;;;;;;;;;;;17.29;100.00;-25553.88;5037116;28;19916;-77
2022/06/05 12:46:23;;;;;;;;;;;;;;;17.27;100.00;-25553.13;5054380;28;20020;-77
2022/06/05 12:48:48;;;;;;;;;;;;;;;17.26;100.00;-25553.00;5037154;28;19917;-78
2022/06/05 12:51:17;;;;;;;;;;;;;;;17.22;100.00;-25551.84;5037629;28;19921;-78
2022/06/05 12:54:01;;;;;;;;;;;;;;;17.19;100.00;-25550.97;5037131;28;19923;-79
2022/06/05 12:56:34;;;;;;;;;;;;;;;17.19;100.00;-25551.09;5038236;28;20285;-79
2022/06/05 12:59:24;;;;;;;;;;;;;;;17.09;100.00;-25548.22;5037450;28;19916;-78
2022/06/05 13:01:52;;;;;;;;;;;;;;;17.03;100.00;-25546.59;5053881;28;19935;-79
2022/06/05 13:04:21;;;;;;;;;;;;;;;17.00;100.00;-25545.59;5037015;28;20012;-78
2022/06/05 13:06:51;;;;;;;;;;;;;;;17.03;100.00;-25546.59;5053901;28;19963;-78